sensor_id;sensor_type;location;lat;lon;timestamp;P1;durP1;ratioP1;P2;durP2;ratioP2
70406;SDS011;57821;52.202;0.154;2024-03-22T00:01:45;12.93;;;6.28;;
70406;SDS011;57821;52.202;0.154;2024-03-22T00:04:15;11.45;;;6.15;;
70406;SDS011;57821;52.202;0.154;2024-03-22T00:06:41;11.82;;;6.80;;
70406;SDS011;57821;52.202;0.154;2024-03-22T00:09:08;11.63;;;6.25;;
70406;SDS011;57821;52.202;0.154;2024-03-22T00:11:34;13.48;;;5.85;;
70406;SDS011;57821;52.202;0.154;2024-03-22T00:14:01;11.40;;;6.07;;
70406;SDS011;57821;52.202;0.154;2024-03-22T00:16:27;10.57;;;6.28;;
70406;SDS011;57821;52.202;0.154;2024-03-22T00:18:52;13.32;;;6.03;;
70406;SDS011;57821;52.202;0.154;2024-03-22T00:21:18;10.70;;;5.47;;
70406;SDS011;57821;52.202;0.154;2024-03-22T00:23:44;9.48;;;5.47;;
70406;SDS011;57821;52.202;0.154;2024-03-22T00:26:10;12.32;;;6.03;;
70406;SDS011;57821;52.202;0.154;2024-03-22T00:28:36;11.70;;;5.22;;
70406;SDS011;57821;52.202;0.154;2024-03-22T00:31:02;11.93;;;5.30;;
70406;SDS011;57821;52.202;0.154;2024-03-22T00:33:28;13.98;;;6.45;;
70406;SDS011;57821;52.202;0.154;2024-03-22T00:35:54;12.52;;;6.30;;
70406;SDS011;57821;52.202;0.154;2024-03-22T00:38:19;12.48;;;5.75;;
70406;SDS011;57821;52.202;0.154;2024-03-22T00:40:45;11.73;;;5.97;;
70406;SDS011;57821;52.202;0.154;2024-03-22T00:43:11;10.40;;;5.25;;
70406;SDS011;57821;52.202;0.154;2024-03-22T00:45:36;10.52;;;5.90;;
70406;SDS011;57821;52.202;0.154;2024-03-22T00:48:02;10.98;;;5.70;;
70406;SDS011;57821;52.202;0.154;2024-03-22T00:50:28;14.25;;;5.72;;
70406;SDS011;57821;52.202;0.154;2024-03-22T00:52:54;11.95;;;6.28;;
70406;SDS011;57821;52.202;0.154;2024-03-22T00:55:23;8.82;;;5.35;;
70406;SDS011;57821;52.202;0.154;2024-03-22T00:57:49;13.45;;;5.45;;
70406;SDS011;57821;52.202;0.154;2024-03-22T01:02:16;12.48;;;6.47;;
70406;SDS011;57821;52.202;0.154;2024-03-22T01:04:42;11.88;;;6.38;;
70406;SDS011;57821;52.202;0.154;2024-03-22T01:07:08;11.95;;;5.88;;
70406;SDS011;57821;52.202;0.154;2024-03-22T01:09:33;11.63;;;5.75;;
70406;SDS011;57821;52.202;0.154;2024-03-22T01:11:59;11.02;;;5.72;;
70406;SDS011;57821;52.202;0.154;2024-03-22T01:14:25;11.30;;;6.18;;
70406;SDS011;57821;52.202;0.154;2024-03-22T01:16:51;13.23;;;5.72;;
70406;SDS011;57821;52.202;0.154;2024-03-22T01:19:16;15.20;;;6.53;;
70406;SDS011;57821;52.202;0.154;2024-03-22T01:21:42;11.10;;;5.75;;
70406;SDS011;57821;52.202;0.154;2024-03-22T01:24:08;15.13;;;6.30;;
70406;SDS011;57821;52.202;0.154;2024-03-22T01:26:33;11.68;;;5.78;;
70406;SDS011;57821;52.202;0.154;2024-03-22T01:28:59;14.23;;;6.30;;
70406;SDS011;57821;52.202;0.154;2024-03-22T01:31:25;14.35;;;6.78;;
70406;SDS011;57821;52.202;0.154;2024-03-22T01:33:50;12.80;;;6.40;;
70406;SDS011;57821;52.202;0.154;2024-03-22T01:36:16;12.98;;;6.50;;
70406;SDS011;57821;52.202;0.154;2024-03-22T01:38:42;11.23;;;6.00;;
70406;SDS011;57821;52.202;0.154;2024-03-22T01:41:07;14.38;;;6.22;;
70406;SDS011;57821;52.202;0.154;2024-03-22T01:43:33;10.68;;;6.32;;
70406;SDS011;57821;52.202;0.154;2024-03-22T01:45:59;11.80;;;6.30;;
70406;SDS011;57821;52.202;0.154;2024-03-22T01:48:24;12.57;;;6.90;;
70406;SDS011;57821;52.202;0.154;2024-03-22T01:50:50;13.32;;;6.70;;
70406;SDS011;57821;52.202;0.154;2024-03-22T01:53:18;12.60;;;6.18;;
70406;SDS011;57821;52.202;0.154;2024-03-22T01:55:43;12.02;;;5.40;;
70406;SDS011;57821;52.202;0.154;2024-03-22T01:58:09;10.43;;;6.05;;
70406;SDS011;57821;52.202;0.154;2024-03-22T02:00:35;10.00;;;5.53;;
70406;SDS011;57821;52.202;0.154;2024-03-22T02:03:01;15.43;;;6.43;;
70406;SDS011;57821;52.202;0.154;2024-03-22T02:05:27;11.85;;;6.00;;
70406;SDS011;57821;52.202;0.154;2024-03-22T02:07:53;20.70;;;6.75;;
70406;SDS011;57821;52.202;0.154;2024-03-22T02:10:18;11.63;;;5.60;;
70406;SDS011;57821;52.202;0.154;2024-03-22T02:12:44;12.48;;;5.63;;
70406;SDS011;57821;52.202;0.154;2024-03-22T02:18:26;11.43;;;5.78;;
70406;SDS011;57821;52.202;0.154;2024-03-22T02:20:51;11.07;;;5.97;;
70406;SDS011;57821;52.202;0.154;2024-03-22T02:23:30;10.45;;;5.32;;
70406;SDS011;57821;52.202;0.154;2024-03-22T02:26:03;11.18;;;5.18;;
70406;SDS011;57821;52.202;0.154;2024-03-22T02:28:31;11.93;;;5.43;;
70406;SDS011;57821;52.202;0.154;2024-03-22T02:30:59;11.68;;;6.18;;
70406;SDS011;57821;52.202;0.154;2024-03-22T02:33:26;10.73;;;6.05;;
70406;SDS011;57821;52.202;0.154;2024-03-22T02:35:52;11.70;;;6.18;;
70406;SDS011;57821;52.202;0.154;2024-03-22T02:38:20;11.60;;;5.85;;
70406;SDS011;57821;52.202;0.154;2024-03-22T02:40:49;11.50;;;5.78;;
70406;SDS011;57821;52.202;0.154;2024-03-22T02:43:18;11.70;;;5.95;;
70406;SDS011;57821;52.202;0.154;2024-03-22T02:45:50;11.35;;;5.82;;
70406;SDS011;57821;52.202;0.154;2024-03-22T02:48:20;11.27;;;5.53;;
70406;SDS011;57821;52.202;0.154;2024-03-22T02:50:46;11.23;;;6.03;;
70406;SDS011;57821;52.202;0.154;2024-03-22T02:53:12;10.80;;;6.40;;
70406;SDS011;57821;52.202;0.154;2024-03-22T02:55:39;13.20;;;6.20;;
70406;SDS011;57821;52.202;0.154;2024-03-22T02:58:06;12.00;;;5.90;;
70406;SDS011;57821;52.202;0.154;2024-03-22T03:00:36;10.13;;;5.88;;
70406;SDS011;57821;52.202;0.154;2024-03-22T03:03:06;11.80;;;6.55;;
70406;SDS011;57821;52.202;0.154;2024-03-22T03:05:32;11.10;;;6.13;;
70406;SDS011;57821;52.202;0.154;2024-03-22T03:07:58;11.10;;;6.38;;
70406;SDS011;57821;52.202;0.154;2024-03-22T03:10:24;10.27;;;5.72;;
70406;SDS011;57821;52.202;0.154;2024-03-22T03:12:50;10.63;;;5.88;;
70406;SDS011;57821;52.202;0.154;2024-03-22T03:15:15;12.98;;;5.90;;
70406;SDS011;57821;52.202;0.154;2024-03-22T03:17:41;11.38;;;6.07;;
70406;SDS011;57821;52.202;0.154;2024-03-22T03:20:07;12.05;;;6.05;;
70406;SDS011;57821;52.202;0.154;2024-03-22T03:22:35;11.00;;;5.78;;
70406;SDS011;57821;52.202;0.154;2024-03-22T03:25:03;11.23;;;6.05;;
70406;SDS011;57821;52.202;0.154;2024-03-22T03:27:29;12.68;;;5.40;;
70406;SDS011;57821;52.202;0.154;2024-03-22T03:29:55;10.45;;;6.00;;
70406;SDS011;57821;52.202;0.154;2024-03-22T03:32:21;10.52;;;5.45;;
70406;SDS011;57821;52.202;0.154;2024-03-22T03:34:47;13.20;;;6.00;;
70406;SDS011;57821;52.202;0.154;2024-03-22T03:37:13;9.25;;;5.32;;
70406;SDS011;57821;52.202;0.154;2024-03-22T03:39:39;12.45;;;5.60;;
70406;SDS011;57821;52.202;0.154;2024-03-22T03:42:05;9.88;;;5.78;;
70406;SDS011;57821;52.202;0.154;2024-03-22T03:44:31;11.27;;;5.60;;
70406;SDS011;57821;52.202;0.154;2024-03-22T03:46:56;13.13;;;5.38;;
70406;SDS011;57821;52.202;0.154;2024-03-22T03:49:22;11.85;;;5.68;;
70406;SDS011;57821;52.202;0.154;2024-03-22T03:51:48;9.65;;;5.38;;
70406;SDS011;57821;52.202;0.154;2024-03-22T03:54:15;10.38;;;5.47;;
70406;SDS011;57821;52.202;0.154;2024-03-22T03:56:41;11.25;;;5.10;;
70406;SDS011;57821;52.202;0.154;2024-03-22T03:59:06;11.30;;;5.28;;
70406;SDS011;57821;52.202;0.154;2024-03-22T04:01:32;11.65;;;5.35;;
70406;SDS011;57821;52.202;0.154;2024-03-22T04:03:58;13.30;;;5.80;;
70406;SDS011;57821;52.202;0.154;2024-03-22T04:06:24;11.85;;;5.95;;
70406;SDS011;57821;52.202;0.154;2024-03-22T04:08:49;11.55;;;5.70;;
70406;SDS011;57821;52.202;0.154;2024-03-22T04:11:15;12.75;;;5.18;;
70406;SDS011;57821;52.202;0.154;2024-03-22T04:13:40;10.63;;;4.88;;
70406;SDS011;57821;52.202;0.154;2024-03-22T04:16:07;11.60;;;5.68;;
70406;SDS011;57821;52.202;0.154;2024-03-22T04:18:32;13.05;;;5.55;;
70406;SDS011;57821;52.202;0.154;2024-03-22T04:20:59;13.98;;;5.60;;
70406;SDS011;57821;52.202;0.154;2024-03-22T04:23:25;12.77;;;5.60;;
70406;SDS011;57821;52.202;0.154;2024-03-22T04:28:20;13.95;;;5.10;;
70406;SDS011;57821;52.202;0.154;2024-03-22T04:33:25;13.07;;;5.43;;
70406;SDS011;57821;52.202;0.154;2024-03-22T04:35:51;10.75;;;5.45;;
70406;SDS011;57821;52.202;0.154;2024-03-22T04:38:18;10.18;;;5.28;;
70406;SDS011;57821;52.202;0.154;2024-03-22T04:40:44;10.13;;;5.35;;
70406;SDS011;57821;52.202;0.154;2024-03-22T04:43:10;8.98;;;5.38;;
70406;SDS011;57821;52.202;0.154;2024-03-22T04:45:36;10.10;;;4.90;;
70406;SDS011;57821;52.202;0.154;2024-03-22T04:48:02;12.05;;;5.65;;
70406;SDS011;57821;52.202;0.154;2024-03-22T04:50:30;12.02;;;5.03;;
70406;SDS011;57821;52.202;0.154;2024-03-22T04:52:56;10.02;;;5.32;;
70406;SDS011;57821;52.202;0.154;2024-03-22T04:55:22;11.10;;;5.43;;
70406;SDS011;57821;52.202;0.154;2024-03-22T04:57:48;13.40;;;5.45;;
70406;SDS011;57821;52.202;0.154;2024-03-22T05:00:13;12.73;;;5.57;;
70406;SDS011;57821;52.202;0.154;2024-03-22T05:02:40;12.40;;;5.40;;
70406;SDS011;57821;52.202;0.154;2024-03-22T05:05:06;11.68;;;5.40;;
70406;SDS011;57821;52.202;0.154;2024-03-22T05:07:33;10.90;;;5.25;;
70406;SDS011;57821;52.202;0.154;2024-03-22T05:09:59;10.50;;;4.90;;
70406;SDS011;57821;52.202;0.154;2024-03-22T05:12:25;12.13;;;5.18;;
70406;SDS011;57821;52.202;0.154;2024-03-22T05:14:51;10.30;;;4.93;;
70406;SDS011;57821;52.202;0.154;2024-03-22T05:17:16;12.05;;;4.85;;
70406;SDS011;57821;52.202;0.154;2024-03-22T05:19:42;11.32;;;5.22;;
70406;SDS011;57821;52.202;0.154;2024-03-22T05:22:08;12.25;;;5.10;;
70406;SDS011;57821;52.202;0.154;2024-03-22T05:24:34;9.88;;;5.25;;
70406;SDS011;57821;52.202;0.154;2024-03-22T05:26:59;9.73;;;4.57;;
70406;SDS011;57821;52.202;0.154;2024-03-22T05:29:25;11.88;;;6.13;;
70406;SDS011;57821;52.202;0.154;2024-03-22T05:31:51;10.57;;;5.65;;
70406;SDS011;57821;52.202;0.154;2024-03-22T05:34:17;12.88;;;5.50;;
70406;SDS011;57821;52.202;0.154;2024-03-22T05:36:44;11.00;;;5.70;;
70406;SDS011;57821;52.202;0.154;2024-03-22T05:39:10;14.23;;;5.75;;
70406;SDS011;57821;52.202;0.154;2024-03-22T05:41:37;12.13;;;5.35;;
70406;SDS011;57821;52.202;0.154;2024-03-22T05:44:03;12.00;;;5.47;;
70406;SDS011;57821;52.202;0.154;2024-03-22T05:46:29;9.10;;;5.05;;
70406;SDS011;57821;52.202;0.154;2024-03-22T05:48:56;14.20;;;6.22;;
70406;SDS011;57821;52.202;0.154;2024-03-22T05:51:22;12.88;;;6.07;;
70406;SDS011;57821;52.202;0.154;2024-03-22T05:53:48;11.18;;;5.68;;
70406;SDS011;57821;52.202;0.154;2024-03-22T05:56:14;13.20;;;6.15;;
70406;SDS011;57821;52.202;0.154;2024-03-22T05:58:40;11.57;;;5.68;;
70406;SDS011;57821;52.202;0.154;2024-03-22T06:01:05;12.80;;;5.85;;
70406;SDS011;57821;52.202;0.154;2024-03-22T06:03:32;12.93;;;6.30;;
70406;SDS011;57821;52.202;0.154;2024-03-22T06:05:59;12.40;;;5.68;;
70406;SDS011;57821;52.202;0.154;2024-03-22T06:08:25;11.90;;;5.70;;
70406;SDS011;57821;52.202;0.154;2024-03-22T06:10:52;10.63;;;5.78;;
70406;SDS011;57821;52.202;0.154;2024-03-22T06:13:18;9.98;;;5.70;;
70406;SDS011;57821;52.202;0.154;2024-03-22T06:15:44;10.40;;;5.78;;
70406;SDS011;57821;52.202;0.154;2024-03-22T06:18:12;11.32;;;5.68;;
70406;SDS011;57821;52.202;0.154;2024-03-22T06:20:38;13.15;;;5.45;;
70406;SDS011;57821;52.202;0.154;2024-03-22T06:23:04;11.40;;;5.03;;
70406;SDS011;57821;52.202;0.154;2024-03-22T06:25:29;13.93;;;6.00;;
70406;SDS011;57821;52.202;0.154;2024-03-22T06:27:55;10.68;;;5.15;;
70406;SDS011;57821;52.202;0.154;2024-03-22T06:30:21;9.98;;;5.53;;
70406;SDS011;57821;52.202;0.154;2024-03-22T06:32:47;10.38;;;5.68;;
70406;SDS011;57821;52.202;0.154;2024-03-22T06:35:13;11.30;;;5.72;;
70406;SDS011;57821;52.202;0.154;2024-03-22T06:37:39;10.82;;;6.03;;
70406;SDS011;57821;52.202;0.154;2024-03-22T06:40:06;11.57;;;5.88;;
70406;SDS011;57821;52.202;0.154;2024-03-22T06:42:32;12.70;;;5.50;;
70406;SDS011;57821;52.202;0.154;2024-03-22T06:44:58;15.05;;;6.55;;
70406;SDS011;57821;52.202;0.154;2024-03-22T06:47:24;12.82;;;6.22;;
70406;SDS011;57821;52.202;0.154;2024-03-22T06:49:49;12.45;;;6.80;;
70406;SDS011;57821;52.202;0.154;2024-03-22T06:52:15;11.70;;;6.57;;
70406;SDS011;57821;52.202;0.154;2024-03-22T06:54:41;12.57;;;6.53;;
70406;SDS011;57821;52.202;0.154;2024-03-22T06:57:07;12.18;;;6.25;;
70406;SDS011;57821;52.202;0.154;2024-03-22T06:59:32;13.23;;;6.22;;
70406;SDS011;57821;52.202;0.154;2024-03-22T07:01:58;11.27;;;6.30;;
70406;SDS011;57821;52.202;0.154;2024-03-22T07:04:24;11.38;;;6.15;;
70406;SDS011;57821;52.202;0.154;2024-03-22T07:06:49;11.45;;;5.88;;
70406;SDS011;57821;52.202;0.154;2024-03-22T07:09:15;10.88;;;5.32;;
70406;SDS011;57821;52.202;0.154;2024-03-22T07:11:41;11.27;;;5.97;;
70406;SDS011;57821;52.202;0.154;2024-03-22T07:14:07;15.15;;;5.65;;
70406;SDS011;57821;52.202;0.154;2024-03-22T07:16:33;9.70;;;5.25;;
70406;SDS011;57821;52.202;0.154;2024-03-22T07:18:59;9.70;;;4.57;;
70406;SDS011;57821;52.202;0.154;2024-03-22T07:21:24;10.88;;;5.63;;
70406;SDS011;57821;52.202;0.154;2024-03-22T07:23:50;9.85;;;3.80;;
70406;SDS011;57821;52.202;0.154;2024-03-22T07:26:16;9.75;;;4.72;;
70406;SDS011;57821;52.202;0.154;2024-03-22T07:28:41;10.80;;;4.05;;
70406;SDS011;57821;52.202;0.154;2024-03-22T07:31:07;8.23;;;4.22;;
70406;SDS011;57821;52.202;0.154;2024-03-22T07:33:33;7.80;;;3.67;;
70406;SDS011;57821;52.202;0.154;2024-03-22T07:36:02;8.73;;;3.90;;
70406;SDS011;57821;52.202;0.154;2024-03-22T07:38:28;10.35;;;3.47;;
70406;SDS011;57821;52.202;0.154;2024-03-22T07:40:54;6.93;;;3.58;;
70406;SDS011;57821;52.202;0.154;2024-03-22T07:43:20;6.57;;;3.30;;
70406;SDS011;57821;52.202;0.154;2024-03-22T07:45:45;9.90;;;4.03;;
70406;SDS011;57821;52.202;0.154;2024-03-22T07:48:11;7.45;;;3.10;;
70406;SDS011;57821;52.202;0.154;2024-03-22T07:50:37;7.20;;;3.20;;
70406;SDS011;57821;52.202;0.154;2024-03-22T07:53:02;7.00;;;3.08;;
70406;SDS011;57821;52.202;0.154;2024-03-22T07:55:28;7.03;;;2.90;;
70406;SDS011;57821;52.202;0.154;2024-03-22T07:57:54;9.07;;;2.60;;
70406;SDS011;57821;52.202;0.154;2024-03-22T08:00:20;7.80;;;3.17;;
70406;SDS011;57821;52.202;0.154;2024-03-22T08:02:45;7.00;;;2.45;;
70406;SDS011;57821;52.202;0.154;2024-03-22T08:05:11;8.00;;;2.90;;
70406;SDS011;57821;52.202;0.154;2024-03-22T08:07:37;7.85;;;2.58;;
70406;SDS011;57821;52.202;0.154;2024-03-22T08:10:03;8.43;;;2.60;;
70406;SDS011;57821;52.202;0.154;2024-03-22T08:12:29;5.13;;;2.30;;
70406;SDS011;57821;52.202;0.154;2024-03-22T08:14:55;7.75;;;2.40;;
70406;SDS011;57821;52.202;0.154;2024-03-22T08:17:21;8.90;;;2.33;;
70406;SDS011;57821;52.202;0.154;2024-03-22T08:19:47;7.65;;;2.40;;
70406;SDS011;57821;52.202;0.154;2024-03-22T08:22:13;6.28;;;2.15;;
70406;SDS011;57821;52.202;0.154;2024-03-22T08:24:39;6.88;;;2.63;;
70406;SDS011;57821;52.202;0.154;2024-03-22T08:27:05;7.32;;;1.92;;
70406;SDS011;57821;52.202;0.154;2024-03-22T08:29:31;7.28;;;1.85;;
70406;SDS011;57821;52.202;0.154;2024-03-22T08:31:56;8.93;;;2.78;;
70406;SDS011;57821;52.202;0.154;2024-03-22T08:34:23;7.85;;;1.98;;
70406;SDS011;57821;52.202;0.154;2024-03-22T08:36:49;6.75;;;2.00;;
70406;SDS011;57821;52.202;0.154;2024-03-22T08:39:14;8.43;;;1.73;;
70406;SDS011;57821;52.202;0.154;2024-03-22T08:41:41;7.70;;;1.98;;
70406;SDS011;57821;52.202;0.154;2024-03-22T08:44:07;5.22;;;1.50;;
70406;SDS011;57821;52.202;0.154;2024-03-22T08:46:32;8.98;;;1.55;;
70406;SDS011;57821;52.202;0.154;2024-03-22T08:48:58;6.88;;;1.70;;
70406;SDS011;57821;52.202;0.154;2024-03-22T08:51:25;6.43;;;1.45;;
70406;SDS011;57821;52.202;0.154;2024-03-22T08:53:51;8.05;;;2.33;;
70406;SDS011;57821;52.202;0.154;2024-03-22T08:56:17;15.82;;;2.05;;
70406;SDS011;57821;52.202;0.154;2024-03-22T08:58:42;7.80;;;1.50;;
70406;SDS011;57821;52.202;0.154;2024-03-22T09:01:08;11.98;;;1.85;;
70406;SDS011;57821;52.202;0.154;2024-03-22T09:03:36;7.72;;;1.30;;
70406;SDS011;57821;52.202;0.154;2024-03-22T09:06:02;11.38;;;2.35;;
70406;SDS011;57821;52.202;0.154;2024-03-22T09:08:28;10.05;;;1.77;;
70406;SDS011;57821;52.202;0.154;2024-03-22T09:10:55;9.10;;;2.22;;
70406;SDS011;57821;52.202;0.154;2024-03-22T09:13:20;13.32;;;1.70;;
70406;SDS011;57821;52.202;0.154;2024-03-22T09:15:46;12.52;;;1.80;;
70406;SDS011;57821;52.202;0.154;2024-03-22T09:18:13;11.50;;;2.05;;
70406;SDS011;57821;52.202;0.154;2024-03-22T09:20:38;11.23;;;2.10;;
70406;SDS011;57821;52.202;0.154;2024-03-22T09:23:04;15.32;;;2.35;;
70406;SDS011;57821;52.202;0.154;2024-03-22T09:25:29;13.95;;;2.70;;
70406;SDS011;57821;52.202;0.154;2024-03-22T09:27:55;19.65;;;2.67;;
70406;SDS011;57821;52.202;0.154;2024-03-22T09:30:21;24.55;;;3.40;;
70406;SDS011;57821;52.202;0.154;2024-03-22T09:32:47;12.98;;;2.67;;
70406;SDS011;57821;52.202;0.154;2024-03-22T09:35:13;16.27;;;2.53;;
70406;SDS011;57821;52.202;0.154;2024-03-22T09:37:40;18.38;;;3.58;;
70406;SDS011;57821;52.202;0.154;2024-03-22T09:40:06;19.60;;;3.30;;
70406;SDS011;57821;52.202;0.154;2024-03-22T09:42:33;12.80;;;2.40;;
70406;SDS011;57821;52.202;0.154;2024-03-22T09:45:03;12.13;;;2.65;;
70406;SDS011;57821;52.202;0.154;2024-03-22T09:47:29;10.75;;;1.85;;
70406;SDS011;57821;52.202;0.154;2024-03-22T09:49:54;13.38;;;2.10;;
70406;SDS011;57821;52.202;0.154;2024-03-22T09:52:21;14.88;;;2.60;;
70406;SDS011;57821;52.202;0.154;2024-03-22T09:54:48;10.43;;;2.00;;
70406;SDS011;57821;52.202;0.154;2024-03-22T09:57:17;10.52;;;1.88;;
70406;SDS011;57821;52.202;0.154;2024-03-22T09:59:43;15.45;;;2.78;;
70406;SDS011;57821;52.202;0.154;2024-03-22T10:02:11;8.38;;;2.05;;
70406;SDS011;57821;52.202;0.154;2024-03-22T10:04:38;10.20;;;1.90;;
70406;SDS011;57821;52.202;0.154;2024-03-22T10:07:06;12.32;;;2.30;;
70406;SDS011;57821;52.202;0.154;2024-03-22T10:09:33;14.57;;;1.98;;
70406;SDS011;57821;52.202;0.154;2024-03-22T10:11:59;12.52;;;2.25;;
70406;SDS011;57821;52.202;0.154;2024-03-22T10:14:25;15.48;;;2.10;;
70406;SDS011;57821;52.202;0.154;2024-03-22T10:16:51;16.83;;;2.42;;
70406;SDS011;57821;52.202;0.154;2024-03-22T10:19:20;10.57;;;1.75;;
70406;SDS011;57821;52.202;0.154;2024-03-22T10:21:47;14.15;;;2.53;;
70406;SDS011;57821;52.202;0.154;2024-03-22T10:24:13;12.23;;;1.90;;
70406;SDS011;57821;52.202;0.154;2024-03-22T10:26:39;10.15;;;2.38;;
70406;SDS011;57821;52.202;0.154;2024-03-22T10:29:06;10.40;;;1.73;;
70406;SDS011;57821;52.202;0.154;2024-03-22T10:31:34;9.77;;;2.10;;
70406;SDS011;57821;52.202;0.154;2024-03-22T10:34:00;11.52;;;2.15;;
70406;SDS011;57821;52.202;0.154;2024-03-22T10:36:29;11.45;;;1.85;;
70406;SDS011;57821;52.202;0.154;2024-03-22T10:38:56;14.85;;;2.00;;
70406;SDS011;57821;52.202;0.154;2024-03-22T10:41:24;8.90;;;2.08;;
70406;SDS011;57821;52.202;0.154;2024-03-22T10:43:51;10.25;;;1.88;;
70406;SDS011;57821;52.202;0.154;2024-03-22T10:46:16;16.02;;;3.65;;
70406;SDS011;57821;52.202;0.154;2024-03-22T10:48:45;15.27;;;2.38;;
70406;SDS011;57821;52.202;0.154;2024-03-22T10:51:11;15.88;;;1.88;;
70406;SDS011;57821;52.202;0.154;2024-03-22T10:53:40;18.80;;;2.63;;
70406;SDS011;57821;52.202;0.154;2024-03-22T10:56:06;12.98;;;2.30;;
70406;SDS011;57821;52.202;0.154;2024-03-22T10:58:34;11.27;;;2.20;;
70406;SDS011;57821;52.202;0.154;2024-03-22T11:01:05;17.83;;;2.73;;
70406;SDS011;57821;52.202;0.154;2024-03-22T11:03:31;17.88;;;2.33;;
70406;SDS011;57821;52.202;0.154;2024-03-22T11:05:59;12.55;;;2.13;;
70406;SDS011;57821;52.202;0.154;2024-03-22T11:08:28;11.35;;;2.40;;
70406;SDS011;57821;52.202;0.154;2024-03-22T11:10:58;13.40;;;2.80;;
70406;SDS011;57821;52.202;0.154;2024-03-22T11:13:35;11.05;;;2.05;;
70406;SDS011;57821;52.202;0.154;2024-03-22T11:16:02;12.82;;;2.00;;
70406;SDS011;57821;52.202;0.154;2024-03-22T11:18:28;16.33;;;2.63;;
70406;SDS011;57821;52.202;0.154;2024-03-22T11:20:53;11.50;;;2.58;;
70406;SDS011;57821;52.202;0.154;2024-03-22T11:23:19;11.77;;;2.60;;
70406;SDS011;57821;52.202;0.154;2024-03-22T11:25:45;10.55;;;2.78;;
70406;SDS011;57821;52.202;0.154;2024-03-22T11:28:11;12.02;;;2.45;;
70406;SDS011;57821;52.202;0.154;2024-03-22T11:30:37;12.32;;;1.90;;
70406;SDS011;57821;52.202;0.154;2024-03-22T11:33:04;17.65;;;2.50;;
70406;SDS011;57821;52.202;0.154;2024-03-22T11:35:31;12.85;;;2.65;;
70406;SDS011;57821;52.202;0.154;2024-03-22T11:37:57;15.55;;;2.60;;
70406;SDS011;57821;52.202;0.154;2024-03-22T11:40:24;12.10;;;2.80;;
70406;SDS011;57821;52.202;0.154;2024-03-22T11:42:51;19.75;;;3.67;;
70406;SDS011;57821;52.202;0.154;2024-03-22T11:45:19;16.50;;;3.13;;
70406;SDS011;57821;52.202;0.154;2024-03-22T11:47:47;22.95;;;4.20;;
70406;SDS011;57821;52.202;0.154;2024-03-22T11:50:14;18.10;;;2.90;;
70406;SDS011;57821;52.202;0.154;2024-03-22T11:52:44;21.70;;;3.35;;
70406;SDS011;57821;52.202;0.154;2024-03-22T11:55:12;13.27;;;2.45;;
70406;SDS011;57821;52.202;0.154;2024-03-22T11:57:38;18.17;;;2.90;;
70406;SDS011;57821;52.202;0.154;2024-03-22T12:00:04;20.73;;;3.05;;
70406;SDS011;57821;52.202;0.154;2024-03-22T12:02:37;24.95;;;3.58;;
70406;SDS011;57821;52.202;0.154;2024-03-22T12:05:04;24.90;;;3.88;;
70406;SDS011;57821;52.202;0.154;2024-03-22T12:07:31;25.92;;;3.65;;
70406;SDS011;57821;52.202;0.154;2024-03-22T12:09:57;23.15;;;4.00;;
70406;SDS011;57821;52.202;0.154;2024-03-22T12:12:23;19.10;;;2.75;;
70406;SDS011;57821;52.202;0.154;2024-03-22T12:14:49;19.42;;;3.60;;
70406;SDS011;57821;52.202;0.154;2024-03-22T12:17:18;25.05;;;3.95;;
70406;SDS011;57821;52.202;0.154;2024-03-22T12:19:44;17.65;;;3.03;;
70406;SDS011;57821;52.202;0.154;2024-03-22T12:22:10;17.90;;;3.60;;
70406;SDS011;57821;52.202;0.154;2024-03-22T12:24:36;16.38;;;3.30;;
70406;SDS011;57821;52.202;0.154;2024-03-22T12:27:02;19.17;;;3.33;;
70406;SDS011;57821;52.202;0.154;2024-03-22T12:29:28;21.33;;;3.55;;
70406;SDS011;57821;52.202;0.154;2024-03-22T12:31:57;18.02;;;3.15;;
70406;SDS011;57821;52.202;0.154;2024-03-22T12:34:23;16.80;;;3.22;;
70406;SDS011;57821;52.202;0.154;2024-03-22T12:36:48;19.08;;;3.47;;
70406;SDS011;57821;52.202;0.154;2024-03-22T12:39:14;22.33;;;3.60;;
70406;SDS011;57821;52.202;0.154;2024-03-22T12:41:40;20.90;;;3.83;;
70406;SDS011;57821;52.202;0.154;2024-03-22T12:44:05;19.10;;;3.42;;
70406;SDS011;57821;52.202;0.154;2024-03-22T12:46:31;23.45;;;4.45;;
70406;SDS011;57821;52.202;0.154;2024-03-22T12:48:57;21.08;;;4.40;;
70406;SDS011;57821;52.202;0.154;2024-03-22T12:51:22;17.52;;;3.63;;
70406;SDS011;57821;52.202;0.154;2024-03-22T12:53:49;20.70;;;3.33;;
70406;SDS011;57821;52.202;0.154;2024-03-22T12:56:15;18.25;;;3.45;;
70406;SDS011;57821;52.202;0.154;2024-03-22T12:58:40;21.83;;;4.78;;
70406;SDS011;57821;52.202;0.154;2024-03-22T13:01:06;21.52;;;3.85;;
70406;SDS011;57821;52.202;0.154;2024-03-22T13:03:34;21.80;;;4.13;;
70406;SDS011;57821;52.202;0.154;2024-03-22T13:05:59;23.50;;;4.32;;
70406;SDS011;57821;52.202;0.154;2024-03-22T13:08:25;19.13;;;3.45;;
70406;SDS011;57821;52.202;0.154;2024-03-22T13:10:51;16.48;;;4.15;;
70406;SDS011;57821;52.202;0.154;2024-03-22T13:13:17;20.35;;;3.80;;
70406;SDS011;57821;52.202;0.154;2024-03-22T13:15:43;18.10;;;3.22;;
70406;SDS011;57821;52.202;0.154;2024-03-22T13:18:09;18.70;;;3.75;;
70406;SDS011;57821;52.202;0.154;2024-03-22T13:20:35;16.73;;;3.05;;
70406;SDS011;57821;52.202;0.154;2024-03-22T13:23:01;19.55;;;3.67;;
70406;SDS011;57821;52.202;0.154;2024-03-22T13:25:27;16.45;;;2.85;;
70406;SDS011;57821;52.202;0.154;2024-03-22T13:27:53;17.08;;;3.45;;
70406;SDS011;57821;52.202;0.154;2024-03-22T13:30:19;15.32;;;3.20;;
70406;SDS011;57821;52.202;0.154;2024-03-22T13:32:45;17.83;;;2.63;;
70406;SDS011;57821;52.202;0.154;2024-03-22T13:35:11;13.20;;;3.00;;
70406;SDS011;57821;52.202;0.154;2024-03-22T13:37:37;17.55;;;3.10;;
70406;SDS011;57821;52.202;0.154;2024-03-22T13:40:02;16.13;;;3.15;;
70406;SDS011;57821;52.202;0.154;2024-03-22T13:42:29;14.88;;;2.85;;
70406;SDS011;57821;52.202;0.154;2024-03-22T13:44:57;14.40;;;3.10;;
70406;SDS011;57821;52.202;0.154;2024-03-22T13:47:23;19.05;;;2.97;;
70406;SDS011;57821;52.202;0.154;2024-03-22T13:49:52;15.73;;;3.10;;
70406;SDS011;57821;52.202;0.154;2024-03-22T13:52:17;14.20;;;3.05;;
70406;SDS011;57821;52.202;0.154;2024-03-22T13:54:43;13.38;;;3.28;;
70406;SDS011;57821;52.202;0.154;2024-03-22T13:57:09;14.18;;;2.65;;
70406;SDS011;57821;52.202;0.154;2024-03-22T13:59:35;9.75;;;2.42;;
70406;SDS011;57821;52.202;0.154;2024-03-22T14:02:01;12.60;;;2.42;;
70406;SDS011;57821;52.202;0.154;2024-03-22T14:04:27;15.90;;;2.60;;
70406;SDS011;57821;52.202;0.154;2024-03-22T14:06:54;13.50;;;2.75;;
70406;SDS011;57821;52.202;0.154;2024-03-22T14:09:20;14.07;;;2.95;;
70406;SDS011;57821;52.202;0.154;2024-03-22T14:11:46;13.07;;;2.45;;
70406;SDS011;57821;52.202;0.154;2024-03-22T14:14:14;12.65;;;2.42;;
70406;SDS011;57821;52.202;0.154;2024-03-22T14:16:40;12.32;;;2.30;;
70406;SDS011;57821;52.202;0.154;2024-03-22T14:19:09;14.75;;;2.22;;
70406;SDS011;57821;52.202;0.154;2024-03-22T14:21:35;10.75;;;1.90;;
70406;SDS011;57821;52.202;0.154;2024-03-22T14:24:03;13.82;;;2.60;;
70406;SDS011;57821;52.202;0.154;2024-03-22T14:26:30;11.35;;;2.85;;
70406;SDS011;57821;52.202;0.154;2024-03-22T14:28:55;14.98;;;2.40;;
70406;SDS011;57821;52.202;0.154;2024-03-22T14:31:21;13.95;;;2.30;;
70406;SDS011;57821;52.202;0.154;2024-03-22T14:33:47;10.40;;;2.17;;
70406;SDS011;57821;52.202;0.154;2024-03-22T14:36:13;10.85;;;2.63;;
70406;SDS011;57821;52.202;0.154;2024-03-22T14:38:39;9.73;;;1.60;;
70406;SDS011;57821;52.202;0.154;2024-03-22T14:41:05;12.70;;;1.90;;